sensor_id;sensor_type;location;lat;lon;timestamp;pressure;altitude;pressure_sealevel;temperature;humidity
13235;BME280;6683;48.506;9.050;2023-12-29T00:00:09;98215.03;;;11.39;69.14
13235;BME280;6683;48.506;9.050;2023-12-29T00:03:13;98216.06;;;11.38;69.14
13235;BME280;6683;48.506;9.050;2023-12-29T00:06:15;98218.50;;;11.40;68.97
13235;BME280;6683;48.506;9.050;2023-12-29T00:09:17;98213.03;;;11.41;69.06
13235;BME280;6683;48.506;9.050;2023-12-29T00:12:20;98206.31;;;11.39;69.18
13235;BME280;6683;48.506;9.050;2023-12-29T00:15:22;98200.22;;;11.38;68.94
13235;BME280;6683;48.506;9.050;2023-12-29T00:18:26;98188.00;;;11.37;69.05
13235;BME280;6683;48.506;9.050;2023-12-29T00:21:28;98189.63;;;11.38;68.96
13235;BME280;6683;48.506;9.050;2023-12-29T00:24:30;98189.44;;;11.40;69.25
13235;BME280;6683;48.506;9.050;2023-12-29T00:27:33;98194.53;;;11.41;68.90
13235;BME280;6683;48.506;9.050;2023-12-29T00:30:38;98174.84;;;11.44;69.12
13235;BME280;6683;48.506;9.050;2023-12-29T00:33:43;98185.84;;;11.47;68.98
13235;BME280;6683;48.506;9.050;2023-12-29T00:36:45;98181.63;;;11.53;69.05
13235;BME280;6683;48.506;9.050;2023-12-29T00:39:47;98175.94;;;11.56;68.70
13235;BME280;6683;48.506;9.050;2023-12-29T00:42:49;98165.19;;;11.57;68.91
13235;BME280;6683;48.506;9.050;2023-12-29T00:45:51;98178.25;;;11.65;69.04
13235;BME280;6683;48.506;9.050;2023-12-29T00:48:54;98176.31;;;11.74;69.08
13235;BME280;6683;48.506;9.050;2023-12-29T00:51:57;98174.13;;;11.84;69.24
13235;BME280;6683;48.506;9.050;2023-12-29T00:54:59;98168.91;;;11.97;69.04
13235;BME280;6683;48.506;9.050;2023-12-29T00:58:01;98165.72;;;12.15;69.11
13235;BME280;6683;48.506;9.050;2023-12-29T01:01:05;98170.06;;;12.29;69.11
13235;BME280;6683;48.506;9.050;2023-12-29T01:04:10;98172.97;;;12.40;68.73
13235;BME280;6683;48.506;9.050;2023-12-29T01:07:12;98177.50;;;12.53;68.55
13235;BME280;6683;48.506;9.050;2023-12-29T01:10:14;98184.25;;;12.62;68.42
13235;BME280;6683;48.506;9.050;2023-12-29T01:13:16;98177.72;;;12.71;68.41
13235;BME280;6683;48.506;9.050;2023-12-29T01:16:18;98182.44;;;12.75;68.10
13235;BME280;6683;48.506;9.050;2023-12-29T01:19:21;98189.16;;;12.78;67.85
13235;BME280;6683;48.506;9.050;2023-12-29T01:22:23;98187.53;;;12.77;67.59
13235;BME280;6683;48.506;9.050;2023-12-29T01:25:26;98196.50;;;12.76;67.62
13235;BME280;6683;48.506;9.050;2023-12-29T01:28:28;98205.66;;;12.73;67.52
13235;BME280;6683;48.506;9.050;2023-12-29T01:31:30;98203.22;;;12.72;67.49
13235;BME280;6683;48.506;9.050;2023-12-29T01:34:33;98187.91;;;12.67;67.21
13235;BME280;6683;48.506;9.050;2023-12-29T01:37:35;98199.72;;;12.65;67.17
13235;BME280;6683;48.506;9.050;2023-12-29T01:40:43;98207.25;;;12.61;67.31
13235;BME280;6683;48.506;9.050;2023-12-29T01:44:20;98212.75;;;12.60;67.38
13235;BME280;6683;48.506;9.050;2023-12-29T01:47:23;98211.94;;;12.59;67.37
13235;BME280;6683;48.506;9.050;2023-12-29T01:50:27;98208.47;;;12.59;67.18
13235;BME280;6683;48.506;9.050;2023-12-29T01:53:39;98196.47;;;12.63;67.46
13235;BME280;6683;48.506;9.050;2023-12-29T01:56:42;98209.31;;;12.66;67.22
13235;BME280;6683;48.506;9.050;2023-12-29T01:59:44;98201.78;;;12.69;67.14
13235;BME280;6683;48.506;9.050;2023-12-29T02:02:48;98191.81;;;12.71;67.11
13235;BME280;6683;48.506;9.050;2023-12-29T02:05:54;98194.25;;;12.73;67.10
13235;BME280;6683;48.506;9.050;2023-12-29T02:08:57;98178.16;;;12.74;66.91
13235;BME280;6683;48.506;9.050;2023-12-29T02:12:00;98186.91;;;12.75;66.78
13235;BME280;6683;48.506;9.050;2023-12-29T02:15:03;98198.94;;;12.77;66.73
13235;BME280;6683;48.506;9.050;2023-12-29T02:18:09;98187.53;;;12.77;66.51
13235;BME280;6683;48.506;9.050;2023-12-29T02:21:14;98194.69;;;12.76;66.74
13235;BME280;6683;48.506;9.050;2023-12-29T02:24:16;98187.53;;;12.77;66.61
13235;BME280;6683;48.506;9.050;2023-12-29T02:27:37;98189.56;;;12.75;66.85
13235;BME280;6683;48.506;9.050;2023-12-29T02:30:46;98184.25;;;12.75;66.55
13235;BME280;6683;48.506;9.050;2023-12-29T02:33:50;98178.97;;;12.75;66.58
13235;BME280;6683;48.506;9.050;2023-12-29T02:36:54;98178.97;;;12.75;66.47
13235;BME280;6683;48.506;9.050;2023-12-29T02:39:58;98177.53;;;12.72;66.48
13235;BME280;6683;48.506;9.050;2023-12-29T02:43:02;98171.44;;;12.72;66.34
13235;BME280;6683;48.506;9.050;2023-12-29T02:46:04;98167.34;;;12.69;66.38
13235;BME280;6683;48.506;9.050;2023-12-29T02:49:06;98155.94;;;12.69;66.60
13235;BME280;6683;48.506;9.050;2023-12-29T02:52:12;98165.69;;;12.68;66.50
13235;BME280;6683;48.506;9.050;2023-12-29T02:55:14;98166.94;;;12.66;66.50
13235;BME280;6683;48.506;9.050;2023-12-29T02:58:17;98156.75;;;12.63;66.42
13235;BME280;6683;48.506;9.050;2023-12-29T03:01:19;98152.47;;;12.62;66.34
13235;BME280;6683;48.506;9.050;2023-12-29T03:04:21;98149.38;;;12.58;66.42
13235;BME280;6683;48.506;9.050;2023-12-29T03:07:23;98141.66;;;12.57;66.33
13235;BME280;6683;48.506;9.050;2023-12-29T03:10:26;98138.19;;;12.56;66.48
13235;BME280;6683;48.506;9.050;2023-12-29T03:13:29;98138.38;;;12.55;66.44
13235;BME280;6683;48.506;9.050;2023-12-29T03:16:31;98134.91;;;12.54;66.27
13235;BME280;6683;48.506;9.050;2023-12-29T03:19:33;98125.53;;;12.52;66.51
13235;BME280;6683;48.506;9.050;2023-12-29T03:22:35;98118.84;;;12.49;66.36
13235;BME280;6683;48.506;9.050;2023-12-29T03:25:37;98124.53;;;12.46;66.31
13235;BME280;6683;48.506;9.050;2023-12-29T03:28:40;98129.41;;;12.43;66.31
13235;BME280;6683;48.506;9.050;2023-12-29T03:31:42;98129.78;;;12.40;66.40
13235;BME280;6683;48.506;9.050;2023-12-29T03:34:44;98124.28;;;12.35;66.32
13235;BME280;6683;48.506;9.050;2023-12-29T03:37:47;98128.53;;;12.29;66.28
13235;BME280;6683;48.506;9.050;2023-12-29T03:40:49;98114.28;;;12.24;66.41
13235;BME280;6683;48.506;9.050;2023-12-29T03:43:52;98124.25;;;12.22;66.71
13235;BME280;6683;48.506;9.050;2023-12-29T03:46:54;98113.03;;;12.20;66.57
13235;BME280;6683;48.506;9.050;2023-12-29T03:49:56;98114.25;;;12.17;66.79
13235;BME280;6683;48.506;9.050;2023-12-29T03:52:59;98109.16;;;12.16;66.76
13235;BME280;6683;48.506;9.050;2023-12-29T03:56:04;98113.84;;;12.14;66.99
13235;BME280;6683;48.506;9.050;2023-12-29T03:59:08;98105.28;;;12.12;66.75
13235;BME280;6683;48.506;9.050;2023-12-29T04:02:10;98105.28;;;12.12;66.84
13235;BME280;6683;48.506;9.050;2023-12-29T04:05:12;98107.09;;;12.11;67.05
13235;BME280;6683;48.506;9.050;2023-12-29T04:08:14;98108.94;;;12.11;66.87
13235;BME280;6683;48.506;9.050;2023-12-29T04:11:16;98104.66;;;12.10;67.06
13235;BME280;6683;48.506;9.050;2023-12-29T04:14:20;98113.41;;;12.10;67.28
13235;BME280;6683;48.506;9.050;2023-12-29T04:17:22;98099.38;;;12.10;66.95
13235;BME280;6683;48.506;9.050;2023-12-29T04:20:24;98097.72;;;12.09;67.11
13235;BME280;6683;48.506;9.050;2023-12-29T04:23:26;98080.84;;;12.10;67.06
13235;BME280;6683;48.506;9.050;2023-12-29T04:26:28;98094.88;;;12.10;66.95
13235;BME280;6683;48.506;9.050;2023-12-29T04:29:31;98110.75;;;12.10;67.04
13235;BME280;6683;48.506;9.050;2023-12-29T04:32:33;98107.94;;;12.12;67.41
13235;BME280;6683;48.506;9.050;2023-12-29T04:35:35;98109.75;;;12.11;67.44
13235;BME280;6683;48.506;9.050;2023-12-29T04:38:39;98107.94;;;12.12;67.14
13235;BME280;6683;48.506;9.050;2023-12-29T04:41:41;98108.09;;;12.10;67.18
13235;BME280;6683;48.506;9.050;2023-12-29T04:44:45;98116.88;;;12.11;67.04
13235;BME280;6683;48.506;9.050;2023-12-29T04:47:47;98117.91;;;12.10;67.14
13235;BME280;6683;48.506;9.050;2023-12-29T04:50:49;98116.25;;;12.09;67.24
13235;BME280;6683;48.506;9.050;2023-12-29T04:53:51;98103.44;;;12.06;67.26
13235;BME280;6683;48.506;9.050;2023-12-29T04:56:53;98113.19;;;12.05;67.10
13235;BME280;6683;48.506;9.050;2023-12-29T04:59:56;98105.47;;;12.03;67.36
13235;BME280;6683;48.506;9.050;2023-12-29T05:02:59;98104.44;;;12.04;67.34
13235;BME280;6683;48.506;9.050;2023-12-29T05:06:01;98091.22;;;12.04;67.33
13235;BME280;6683;48.506;9.050;2023-12-29T05:09:03;98103.59;;;12.04;67.25
13235;BME280;6683;48.506;9.050;2023-12-29T05:12:06;98098.31;;;12.04;67.29
13235;BME280;6683;48.506;9.050;2023-12-29T05:15:10;98098.53;;;12.02;67.34
13235;BME280;6683;48.506;9.050;2023-12-29T05:18:12;98096.69;;;12.03;67.39
13235;BME280;6683;48.506;9.050;2023-12-29T05:21:15;98105.63;;;12.02;67.48
13235;BME280;6683;48.506;9.050;2023-12-29T05:24:17;98103.00;;;12.02;67.24
13235;BME280;6683;48.506;9.050;2023-12-29T05:27:19;98104.81;;;12.01;67.20
13235;BME280;6683;48.506;9.050;2023-12-29T05:30:23;98109.69;;;11.98;67.32
13235;BME280;6683;48.506;9.050;2023-12-29T05:33:27;98103.41;;;11.99;67.39
13235;BME280;6683;48.506;9.050;2023-12-29T05:36:29;98107.88;;;11.98;67.51
13235;BME280;6683;48.506;9.050;2023-12-29T05:39:31;98105.59;;;11.95;67.35
13235;BME280;6683;48.506;9.050;2023-12-29T05:42:33;98106.63;;;11.94;67.46
13235;BME280;6683;48.506;9.050;2023-12-29T05:45:37;98119.63;;;11.89;67.39
13235;BME280;6683;48.506;9.050;2023-12-29T05:48:39;98128.59;;;11.88;67.47
13235;BME280;6683;48.506;9.050;2023-12-29T05:51:42;98121.47;;;11.89;67.41
13235;BME280;6683;48.506;9.050;2023-12-29T05:54:45;98121.66;;;11.87;67.29
13235;BME280;6683;48.506;9.050;2023-12-29T05:57:47;98123.47;;;11.87;67.64
13235;BME280;6683;48.506;9.050;2023-12-29T06:00:50;98124.69;;;11.84;67.63
13235;BME280;6683;48.506;9.050;2023-12-29T06:03:52;98125.50;;;11.85;67.25
13235;BME280;6683;48.506;9.050;2023-12-29T06:06:54;98132.63;;;11.84;67.40
13235;BME280;6683;48.506;9.050;2023-12-29T06:09:57;98128.53;;;11.82;67.51
13235;BME280;6683;48.506;9.050;2023-12-29T06:13:01;98126.72;;;11.82;67.58
13235;BME280;6683;48.506;9.050;2023-12-29T06:16:06;98130.16;;;11.83;67.54
13235;BME280;6683;48.506;9.050;2023-12-29T06:19:08;98131.19;;;11.82;67.46
13235;BME280;6683;48.506;9.050;2023-12-29T06:22:10;98130.38;;;11.81;67.55
13235;BME280;6683;48.506;9.050;2023-12-29T06:25:15;98131.38;;;11.80;67.55
13235;BME280;6683;48.506;9.050;2023-12-29T06:28:17;98134.22;;;11.79;67.79
13235;BME280;6683;48.506;9.050;2023-12-29T06:31:20;98126.47;;;11.77;67.85
13235;BME280;6683;48.506;9.050;2023-12-29T06:34:23;98117.72;;;11.77;67.97
13235;BME280;6683;48.506;9.050;2023-12-29T06:37:25;98126.47;;;11.77;67.72
13235;BME280;6683;48.506;9.050;2023-12-29T06:40:27;98123.47;;;11.80;67.96
13235;BME280;6683;48.506;9.050;2023-12-29T06:43:29;98119.59;;;11.83;67.98
13235;BME280;6683;48.506;9.050;2023-12-29T06:46:33;98115.94;;;11.84;68.12
13235;BME280;6683;48.506;9.050;2023-12-29T06:49:35;98120.81;;;11.87;67.80
13235;BME280;6683;48.506;9.050;2023-12-29T06:52:37;98108.41;;;11.87;68.07
13235;BME280;6683;48.506;9.050;2023-12-29T06:55:39;98111.88;;;11.88;67.97
13235;BME280;6683;48.506;9.050;2023-12-29T06:58:41;98102.31;;;11.87;68.18
13235;BME280;6683;48.506;9.050;2023-12-29T07:01:45;98095.19;;;11.87;68.17
13235;BME280;6683;48.506;9.050;2023-12-29T07:04:48;98094.81;;;11.90;68.17
13235;BME280;6683;48.506;9.050;2023-12-29T07:07:50;98091.75;;;11.93;68.17
13235;BME280;6683;48.506;9.050;2023-12-29T07:10:52;98102.97;;;11.95;68.14
13235;BME280;6683;48.506;9.050;2023-12-29T07:13:54;98117.22;;;11.94;68.02
13235;BME280;6683;48.506;9.050;2023-12-29T07:16:58;98119.03;;;11.94;68.27
13235;BME280;6683;48.506;9.050;2023-12-29T07:20:00;98115.38;;;11.95;68.44
13235;BME280;6683;48.506;9.050;2023-12-29T07:23:03;98117.00;;;11.96;68.47
13235;BME280;6683;48.506;9.050;2023-12-29T07:26:06;98109.91;;;11.96;68.16
13235;BME280;6683;48.506;9.050;2023-12-29T07:29:08;98110.09;;;11.95;68.36
13235;BME280;6683;48.506;9.050;2023-12-29T07:32:12;98112.13;;;11.93;68.09
13235;BME280;6683;48.506;9.050;2023-12-29T07:35:14;98110.47;;;11.92;68.06
13235;BME280;6683;48.506;9.050;2023-12-29T07:38:18;98115.34;;;11.88;68.08
13235;BME280;6683;48.506;9.050;2023-12-29T07:41:20;98119.19;;;11.86;68.32
13235;BME280;6683;48.506;9.050;2023-12-29T07:44:22;98112.47;;;11.83;67.89
13235;BME280;6683;48.506;9.050;2023-12-29T07:47:26;98126.72;;;11.82;68.06
13235;BME280;6683;48.506;9.050;2023-12-29T07:50:28;98122.22;;;11.83;68.17
13235;BME280;6683;48.506;9.050;2023-12-29T07:53:31;98114.50;;;11.81;67.96
13235;BME280;6683;48.506;9.050;2023-12-29T07:56:33;98113.06;;;11.79;67.75
13235;BME280;6683;48.506;9.050;2023-12-29T07:59:35;98117.72;;;11.77;67.91
13235;BME280;6683;48.506;9.050;2023-12-29T08:02:39;98118.53;;;11.77;68.23
13235;BME280;6683;48.506;9.050;2023-12-29T08:05:41;98119.38;;;11.78;68.08
13235;BME280;6683;48.506;9.050;2023-12-29T08:08:43;98122.63;;;11.80;68.42
13235;BME280;6683;48.506;9.050;2023-12-29T08:11:45;98134.44;;;11.84;68.56
13235;BME280;6683;48.506;9.050;2023-12-29T08:14:47;98129.19;;;11.90;68.66
13235;BME280;6683;48.506;9.050;2023-12-29T08:17:51;98133.09;;;11.94;68.61
13235;BME280;6683;48.506;9.050;2023-12-29T08:20:53;98129.66;;;12.00;68.54
13235;BME280;6683;48.506;9.050;2023-12-29T08:23:55;98136.78;;;12.07;68.63
13235;BME280;6683;48.506;9.050;2023-12-29T08:26:57;98135.78;;;12.14;68.64
13235;BME280;6683;48.506;9.050;2023-12-29T08:29:59;98137.47;;;12.22;68.32
13235;BME280;6683;48.506;9.050;2023-12-29T08:33:02;98144.63;;;12.28;68.37
13235;BME280;6683;48.506;9.050;2023-12-29T08:36:06;98151.75;;;12.34;68.44
13235;BME280;6683;48.506;9.050;2023-12-29T08:39:08;98133.66;;;12.37;68.53
13235;BME280;6683;48.506;9.050;2023-12-29T08:42:12;98134.69;;;12.43;68.67
13235;BME280;6683;48.506;9.050;2023-12-29T08:45:14;98135.50;;;12.50;68.77
13235;BME280;6683;48.506;9.050;2023-12-29T08:48:18;98129.03;;;12.59;68.94
13235;BME280;6683;48.506;9.050;2023-12-29T08:51:20;98126.59;;;12.70;68.71
13235;BME280;6683;48.506;9.050;2023-12-29T08:54:22;98136.38;;;12.83;68.88
13235;BME280;6683;48.506;9.050;2023-12-29T08:57:24;98118.06;;;12.95;68.88
13235;BME280;6683;48.506;9.050;2023-12-29T09:00:26;98118.31;;;13.06;68.98
13235;BME280;6683;48.506;9.050;2023-12-29T09:03:32;98117.69;;;13.17;68.94
13235;BME280;6683;48.506;9.050;2023-12-29T09:06:34;98119.13;;;13.26;68.81
13235;BME280;6683;48.506;9.050;2023-12-29T09:09:36;98117.69;;;13.37;68.86
13235;BME280;6683;48.506;9.050;2023-12-29T09:12:38;98115.22;;;13.48;68.80
13235;BME280;6683;48.506;9.050;2023-12-29T09:15:40;98115.59;;;13.58;68.79
13235;BME280;6683;48.506;9.050;2023-12-29T09:18:44;98121.91;;;13.71;68.70
13235;BME280;6683;48.506;9.050;2023-12-29T09:21:46;98122.69;;;13.84;68.55
13235;BME280;6683;48.506;9.050;2023-12-29T09:24:48;98126.94;;;13.98;68.44
13235;BME280;6683;48.506;9.050;2023-12-29T09:27:50;98122.81;;;14.09;68.34
13235;BME280;6683;48.506;9.050;2023-12-29T09:30:53;98125.19;;;14.23;68.14
13235;BME280;6683;48.506;9.050;2023-12-29T09:33:56;98134.38;;;14.34;68.02
13235;BME280;6683;48.506;9.050;2023-12-29T09:36:59;98137.19;;;14.46;67.67
13235;BME280;6683;48.506;9.050;2023-12-29T09:40:01;98145.91;;;14.53;67.52
13235;BME280;6683;48.506;9.050;2023-12-29T09:43:04;98151.44;;;14.58;67.53
13235;BME280;6683;48.506;9.050;2023-12-29T09:46:07;98146.88;;;14.65;67.23
13235;BME280;6683;48.506;9.050;2023-12-29T09:49:12;98152.97;;;14.72;66.99
13235;BME280;6683;48.506;9.050;2023-12-29T09:52:17;98153.94;;;14.77;66.97
13235;BME280;6683;48.506;9.050;2023-12-29T09:55:20;98154.53;;;14.79;66.76
13235;BME280;6683;48.506;9.050;2023-12-29T09:58:24;98143.13;;;14.79;66.67
13235;BME280;6683;48.506;9.050;2023-12-29T10:01:27;98148.63;;;14.77;66.47
13235;BME280;6683;48.506;9.050;2023-12-29T10:04:31;98149.28;;;14.73;66.31
13235;BME280;6683;48.506;9.050;2023-12-29T10:07:37;98151.31;;;14.71;66.35
13235;BME280;6683;48.506;9.050;2023-12-29T10:10:42;98144.63;;;14.68;66.29
13235;BME280;6683;48.506;9.050;2023-12-29T10:13:46;98145.25;;;14.64;66.15
13235;BME280;6683;48.506;9.050;2023-12-29T10:16:56;98144.06;;;14.60;66.39
13235;BME280;6683;48.506;9.050;2023-12-29T10:20:15;98137.69;;;14.61;66.46
13235;BME280;6683;48.506;9.050;2023-12-29T10:23:22;98134.84;;;14.62;66.47
13235;BME280;6683;48.506;9.050;2023-12-29T10:26:27;98126.44;;;14.65;66.33
13235;BME280;6683;48.506;9.050;2023-12-29T10:29:30;98118.84;;;14.69;66.11
13235;BME280;6683;48.506;9.050;2023-12-29T10:32:33;98121.88;;;14.79;66.34
13235;BME280;6683;48.506;9.050;2023-12-29T10:35:37;98123.19;;;14.94;66.33
13235;BME280;6683;48.506;9.050;2023-12-29T10:38:40;98107.13;;;15.07;65.62
13235;BME280;6683;48.506;9.050;2023-12-29T10:41:43;98110.75;;;15.13;65.42
13235;BME280;6683;48.506;9.050;2023-12-29T10:44:45;98108.69;;;15.15;65.16
13235;BME280;6683;48.506;9.050;2023-12-29T10:47:47;98112.28;;;15.27;65.47
13235;BME280;6683;48.506;9.050;2023-12-29T10:50:51;98093.16;;;15.61;65.29
13235;BME280;6683;48.506;9.050;2023-12-29T10:53:55;98092.13;;;15.98;65.10
13235;BME280;6683;48.506;9.050;2023-12-29T10:57:01;98074.97;;;16.42;64.40
13235;BME280;6683;48.506;9.050;2023-12-29T11:00:06;98085.19;;;16.75;63.76
13235;BME280;6683;48.506;9.050;2023-12-29T11:03:15;98086.34;;;16.79;62.74
13235;BME280;6683;48.506;9.050;2023-12-29T11:06:19;98087.66;;;16.58;62.05
13235;BME280;6683;48.506;9.050;2023-12-29T11:09:28;98077.50;;;16.37;62.19
13235;BME280;6683;48.506;9.050;2023-12-29T11:12:35;98088.56;;;16.23;62.03
13235;BME280;6683;48.506;9.050;2023-12-29T11:15:38;98082.50;;;16.16;62.24
13235;BME280;6683;48.506;9.050;2023-12-29T11:18:43;98076.88;;;16.06;61.96
13235;BME280;6683;48.506;9.050;2023-12-29T11:21:47;98076.03;;;15.93;62.22
13235;BME280;6683;48.506;9.050;2023-12-29T11:24:50;98070.19;;;15.85;62.09
13235;BME280;6683;48.506;9.050;2023-12-29T11:27:53;98070.09;;;15.73;62.12
13235;BME280;6683;48.506;9.050;2023-12-29T11:30:56;98073.88;;;15.66;61.91
13235;BME280;6683;48.506;9.050;2023-12-29T11:34:05;98077.84;;;15.57;62.18
13235;BME280;6683;48.506;9.050;2023-12-29T11:37:24;98070.75;;;15.51;62.20
13235;BME280;6683;48.506;9.050;2023-12-29T11:40:36;98055.97;;;15.55;62.25
13235;BME280;6683;48.506;9.050;2023-12-29T11:43:39;98058.81;;;15.60;62.24
13235;BME280;6683;48.506;9.050;2023-12-29T11:46:44;98055.91;;;15.61;62.20
13235;BME280;6683;48.506;9.050;2023-12-29T11:49:59;98047.69;;;15.63;62.31
13235;BME280;6683;48.506;9.050;2023-12-29T11:53:03;98039.72;;;15.81;62.41
13235;BME280;6683;48.506;9.050;2023-12-29T11:56:15;98044.78;;;16.19;62.33
13235;BME280;6683;48.506;9.050;2023-12-29T11:59:19;98039.00;;;16.51;61.74
13235;BME280;6683;48.506;9.050;2023-12-29T12:02:27;98047.06;;;16.74;61.30
13235;BME280;6683;48.506;9.050;2023-12-29T12:05:45;98039.06;;;16.86;60.68
13235;BME280;6683;48.506;9.050;2023-12-29T12:09:15;98041.03;;;16.91;60.70
13235;BME280;6683;48.506;9.050;2023-12-29T12:12:40;98032.31;;;16.84;60.63
13235;BME280;6683;48.506;9.050;2023-12-29T12:19:43;98035.22;;;16.70;60.28
13235;BME280;6683;48.506;9.050;2023-12-29T12:22:46;98036.44;;;16.56;60.17
13235;BME280;6683;48.506;9.050;2023-12-29T12:25:57;98036.97;;;16.47;60.33
13235;BME280;6683;48.506;9.050;2023-12-29T12:29:00;98028.25;;;16.40;60.45
13235;BME280;6683;48.506;9.050;2023-12-29T12:32:03;98019.56;;;16.33;60.40
13235;BME280;6683;48.506;9.050;2023-12-29T12:35:14;98024.41;;;16.24;60.64
13235;BME280;6683;48.506;9.050;2023-12-29T12:38:17;98012.94;;;16.24;60.34
13235;BME280;6683;48.506;9.050;2023-12-29T12:41:25;98017.09;;;16.20;60.50
13235;BME280;6683;48.506;9.050;2023-12-29T12:44:30;98017.31;;;16.18;60.22
13235;BME280;6683;48.506;9.050;2023-12-29T12:47:36;98013.25;;;16.16;59.91
13235;BME280;6683;48.506;9.050;2023-12-29T12:50:43;98019.59;;;16.15;60.04
13235;BME280;6683;48.506;9.050;2023-12-29T12:53:45;98015.09;;;16.15;59.93
13235;BME280;6683;48.506;9.050;2023-12-29T12:56:50;98010.00;;;16.14;59.51
13235;BME280;6683;48.506;9.050;2023-12-29T12:59:53;98005.59;;;16.08;59.46
13235;BME280;6683;48.506;9.050;2023-12-29T13:02:56;98007.28;;;16.02;59.07
13235;BME280;6683;48.506;9.050;2023-12-29T13:05:59;98017.00;;;15.96;58.94
13235;BME280;6683;48.506;9.050;2023-12-29T13:09:03;98010.72;;;15.91;58.93
13235;BME280;6683;48.506;9.050;2023-12-29T13:12:13;98014.28;;;15.85;58.71
13235;BME280;6683;48.506;9.050;2023-12-29T13:15:16;98014.94;;;15.80;58.63
13235;BME280;6683;48.506;9.050;2023-12-29T13:18:29;98016.44;;;15.76;58.63
13235;BME280;6683;48.506;9.050;2023-12-29T13:21:32;98021.38;;;15.73;58.57
13235;BME280;6683;48.506;9.050;2023-12-29T13:24:34;98014.69;;;15.70;58.42
13235;BME280;6683;48.506;9.050;2023-12-29T13:27:39;98019.41;;;15.68;58.55
13235;BME280;6683;48.506;9.050;2023-12-29T13:30:42;98016.75;;;15.68;58.38
13235;BME280;6683;48.506;9.050;2023-12-29T13:33:51;98020.66;;;15.66;58.29
13235;BME280;6683;48.506;9.050;2023-12-29T13:37:04;98024.94;;;15.67;58.38
13235;BME280;6683;48.506;9.050;2023-12-29T13:40:12;98026.56;;;15.68;58.16
13235;BME280;6683;48.506;9.050;2023-12-29T13:43:18;98025.75;;;15.67;57.94
13235;BME280;6683;48.506;9.050;2023-12-29T13:46:22;98024.94;;;15.67;57.82
13235;BME280;6683;48.506;9.050;2023-12-29T13:49:25;98027.81;;;15.65;57.80
13235;BME280;6683;48.506;9.050;2023-12-29T13:52:27;98025.38;;;15.64;57.62
13235;BME280;6683;48.506;9.050;2023-12-29T13:55:29;98033.81;;;15.61;57.39
13235;BME280;6683;48.506;9.050;2023-12-29T13:58:33;98029.97;;;15.57;57.17
13235;BME280;6683;48.506;9.050;2023-12-29T14:01:35;98035.94;;;15.52;56.95
13235;BME280;6683;48.506;9.050;2023-12-29T14:04:38;98037.66;;;15.47;56.81
13235;BME280;6683;48.506;9.050;2023-12-29T14:07:45;98042.78;;;15.42;56.80
13235;BME280;6683;48.506;9.050;2023-12-29T14:10:49;98039.97;;;15.37;56.56
13235;BME280;6683;48.506;9.050;2023-12-29T14:13:53;98042.47;;;15.32;56.40
13235;BME280;6683;48.506;9.050;2023-12-29T14:16:56;98048.25;;;15.29;56.26
13235;BME280;6683;48.506;9.050;2023-12-29T14:19:58;98048.09;;;15.23;56.34
13235;BME280;6683;48.506;9.050;2023-12-29T14:23:06;98047.94;;;15.18;56.22
13235;BME280;6683;48.506;9.050;2023-12-29T14:26:09;98044.28;;;15.13;56.22
13235;BME280;6683;48.506;9.050;2023-12-29T14:29:13;98041.69;;;15.06;56.24
13235;BME280;6683;48.506;9.050;2023-12-29T14:32:15;98041.56;;;15.01;56.18
13235;BME280;6683;48.506;9.050;2023-12-29T14:35:17;98045.09;;;14.95;56.22
13235;BME280;6683;48.506;9.050;2023-12-29T14:38:19;98052.28;;;14.88;56.19
13235;BME280;6683;48.506;9.050;2023-12-29T14:41:23;98051.09;;;14.84;56.11
13235;BME280;6683;48.506;9.050;2023-12-29T14:44:27;98043.75;;;14.80;56.20
13235;BME280;6683;48.506;9.050;2023-12-29T14:47:29;98054.03;;;14.76;56.09
13235;BME280;6683;48.506;9.050;2023-12-29T14:50:31;98045.66;;;14.73;56.13
13235;BME280;6683;48.506;9.050;2023-12-29T14:53:33;98057.97;;;14.67;55.98
13235;BME280;6683;48.506;9.050;2023-12-29T14:56:35;98055.16;;;14.62;56.08
13235;BME280;6683;48.506;9.050;2023-12-29T14:59:39;98045.38;;;14.56;55.98
13235;BME280;6683;48.506;9.050;2023-12-29T15:02:42;98050.75;;;14.50;55.82
13235;BME280;6683;48.506;9.050;2023-12-29T15:05:45;98043.63;;;14.43;55.96
13235;BME280;6683;48.506;9.050;2023-12-29T15:08:48;98054.91;;;14.39;56.16
13235;BME280;6683;48.506;9.050;2023-12-29T15:11:50;98048.81;;;14.32;56.23
13235;BME280;6683;48.506;9.050;2023-12-29T15:14:54;98049.63;;;14.26;56.33
13235;BME280;6683;48.506;9.050;2023-12-29T15:17:57;98050.03;;;14.23;56.43
13235;BME280;6683;48.506;9.050;2023-12-29T15:20:59;98053.56;;;14.17;56.40
13235;BME280;6683;48.506;9.050;2023-12-29T15:24:02;98061.34;;;14.12;56.41
13235;BME280;6683;48.506;9.050;2023-12-29T15:27:05;98056.91;;;14.06;56.39
13235;BME280;6683;48.506;9.050;2023-12-29T15:30:10;98053.00;;;14.02;56.46
13235;BME280;6683;48.506;9.050;2023-12-29T15:33:13;98054.28;;;13.99;56.40
13235;BME280;6683;48.506;9.050;2023-12-29T15:36:15;98059.97;;;13.96;56.42
13235;BME280;6683;48.506;9.050;2023-12-29T15:39:21;98046.34;;;13.93;56.50
13235;BME280;6683;48.506;9.050;2023-12-29T15:42:23;98053.09;;;13.89;56.43
13235;BME280;6683;48.506;9.050;2023-12-29T15:45:27;98054.72;;;13.83;56.57
13235;BME280;6683;48.506;9.050;2023-12-29T15:48:29;98057.81;;;13.80;56.58
13235;BME280;6683;48.506;9.050;2023-12-29T15:51:31;98056.59;;;13.76;56.59
13235;BME280;6683;48.506;9.050;2023-12-29T15:54:33;98050.50;;;13.69;56.60
13235;BME280;6683;48.506;9.050;2023-12-29T15:57:35;98048.47;;;13.58;56.46
13235;BME280;6683;48.506;9.050;2023-12-29T16:00:39;98047.72;;;13.44;56.43
13235;BME280;6683;48.506;9.050;2023-12-29T16:03:41;98045.09;;;13.31;56.65
13235;BME280;6683;48.506;9.050;2023-12-29T16:06:43;98044.91;;;13.20;56.79
13235;BME280;6683;48.506;9.050;2023-12-29T16:09:45;98044.72;;;13.08;56.68
13235;BME280;6683;48.506;9.050;2023-12-29T16:12:47;98037.38;;;12.97;56.86
13235;BME280;6683;48.506;9.050;2023-12-29T16:15:51;98036.16;;;12.87;56.81
13235;BME280;6683;48.506;9.050;2023-12-29T16:18:53;98049.78;;;12.77;56.92
13235;BME280;6683;48.506;9.050;2023-12-29T16:21:55;98041.44;;;12.67;56.99
13235;BME280;6683;48.506;9.050;2023-12-29T16:24:57;98039.22;;;12.57;57.17
13235;BME280;6683;48.506;9.050;2023-12-29T16:27:59;98034.50;;;12.46;57.34